CGR867 SCEL-SCIE
Flight info
| Callsign | CGR867 |
|---|---|
| Flight time | 0h 41m |
| Altitude | 29000 |
| Route | GELUS5B GELUS UQ809 ARUNI ARUNI6C |
| Aircraft | B739/M-SDE2E3FGHIRWXY/LB1 |
Departure
| Time | 2026-04-30 14:32 |
|---|---|
| Airport | Comodoro Arturo Merino Benítez International Airport (SCEL) |
Arrival
| Time | 2026-04-30 15:14 |
|---|---|
| Airport | Carriel Sur International Airport (SCIE) |
| Time | Latitude | Longitude | Altitude | Speed | Heading |
|---|---|---|---|---|---|
| 2026-04-30 14:15 | -33.39560 | -70.78966 | 1563 ft | 0 kts | 185° |
| 2026-04-30 14:20 | -33.39553 | -70.78965 | 1564 ft | 2 kts | 178° |
| 2026-04-30 14:21 | -33.39537 | -70.78967 | 1564 ft | 2 kts | 165° |
| 2026-04-30 14:21 | -33.39522 | -70.78974 | 1564 ft | 2 kts | 146° |
| 2026-04-30 14:21 | -33.39501 | -70.79004 | 1563 ft | 2 kts | 110° |
| 2026-04-30 14:22 | -33.39497 | -70.79023 | 1564 ft | 2 kts | 99° |
| 2026-04-30 14:22 | -33.39495 | -70.79044 | 1564 ft | 0 kts | 90° |
| 2026-04-30 14:26 | -33.39495 | -70.79016 | 1563 ft | 8 kts | 89° |
| 2026-04-30 14:26 | -33.39488 | -70.78924 | 1563 ft | 13 kts | 72° |
| 2026-04-30 14:26 | -33.39343 | -70.78807 | 1563 ft | 13 kts | 18° |
| 2026-04-30 14:27 | -33.39255 | -70.78798 | 1563 ft | 13 kts | 359° |
| 2026-04-30 14:27 | -33.39155 | -70.78804 | 1563 ft | 17 kts | 358° |
| 2026-04-30 14:27 | -33.39004 | -70.78812 | 1563 ft | 25 kts | 356° |
| 2026-04-30 14:28 | -33.38654 | -70.78831 | 1563 ft | 24 kts | 356° |
| 2026-04-30 14:28 | -33.38494 | -70.78839 | 1563 ft | 23 kts | 357° |
| 2026-04-30 14:28 | -33.38338 | -70.78846 | 1563 ft | 22 kts | 357° |
| 2026-04-30 14:28 | -33.38185 | -70.78855 | 1563 ft | 23 kts | 357° |
| 2026-04-30 14:29 | -33.37882 | -70.78872 | 1564 ft | 21 kts | 357° |
| 2026-04-30 14:29 | -33.37658 | -70.78882 | 1563 ft | 17 kts | 358° |
| 2026-04-30 14:30 | -33.37548 | -70.78809 | 1563 ft | 1 kts | 84° |
| 2026-04-30 14:31 | -33.37545 | -70.78781 | 1563 ft | 5 kts | 84° |
| 2026-04-30 14:31 | -33.37621 | -70.78670 | 1564 ft | 15 kts | 176° |
| 2026-04-30 14:31 | -33.37769 | -70.78662 | 1564 ft | 29 kts | 178° |
| 2026-04-30 14:32 | -33.39091 | -70.78592 | 1564 ft | 158 kts | 177° |
| 2026-04-30 14:32 | -33.40290 | -70.78518 | 1991 ft | 171 kts | 178° |
| 2026-04-30 14:32 | -33.41467 | -70.78467 | 2746 ft | 175 kts | 180° |
| 2026-04-30 14:33 | -33.42755 | -70.78435 | 3046 ft | 201 kts | 179° |
| 2026-04-30 14:33 | -33.45873 | -70.78331 | 3543 ft | 245 kts | 178° |
| 2026-04-30 14:33 | -33.47658 | -70.78265 | 3805 ft | 266 kts | 178° |
| 2026-04-30 14:34 | -33.49542 | -70.78294 | 4482 ft | 273 kts | 193° |
| 2026-04-30 14:34 | -33.51218 | -70.79313 | 5280 ft | 275 kts | 225° |
| 2026-04-30 14:34 | -33.52261 | -70.81226 | 6038 ft | 276 kts | 251° |
| 2026-04-30 14:34 | -33.52664 | -70.83479 | 6829 ft | 277 kts | 265° |
| 2026-04-30 14:35 | -33.53778 | -70.87057 | 8081 ft | 290 kts | 226° |
| 2026-04-30 14:35 | -33.56064 | -70.88887 | 9056 ft | 301 kts | 213° |
| 2026-04-30 14:35 | -33.57869 | -70.90136 | 9743 ft | 306 kts | 213° |
| 2026-04-30 14:36 | -33.59731 | -70.91412 | 10408 ft | 312 kts | 213° |
| 2026-04-30 14:36 | -33.61687 | -70.92761 | 10612 ft | 336 kts | 213° |
| 2026-04-30 14:36 | -33.63769 | -70.94208 | 10782 ft | 357 kts | 213° |
| 2026-04-30 14:36 | -33.65980 | -70.95752 | 11063 ft | 373 kts | 213° |
| 2026-04-30 14:37 | -33.68249 | -70.97340 | 11599 ft | 379 kts | 213° |
| 2026-04-30 14:37 | -33.70530 | -70.98939 | 12319 ft | 380 kts | 213° |
| 2026-04-30 14:37 | -33.72817 | -71.00546 | 13005 ft | 382 kts | 213° |
| 2026-04-30 14:37 | -33.75122 | -71.02171 | 13661 ft | 385 kts | 213° |
| 2026-04-30 14:38 | -33.77443 | -71.03811 | 14249 ft | 388 kts | 213° |
| 2026-04-30 14:38 | -33.79784 | -71.05467 | 14867 ft | 390 kts | 213° |
| 2026-04-30 14:38 | -33.82095 | -71.07103 | 15488 ft | 391 kts | 214° |
| 2026-04-30 14:38 | -33.84444 | -71.08767 | 16103 ft | 393 kts | 214° |
| 2026-04-30 14:39 | -33.86805 | -71.10442 | 16708 ft | 395 kts | 214° |
| 2026-04-30 14:39 | -33.89182 | -71.12129 | 17285 ft | 397 kts | 214° |
| 2026-04-30 14:39 | -33.91570 | -71.13824 | 17860 ft | 399 kts | 214° |
| 2026-04-30 14:40 | -33.96377 | -71.17241 | 18913 ft | 403 kts | 214° |
| 2026-04-30 14:40 | -33.98796 | -71.18961 | 19397 ft | 404 kts | 214° |
| 2026-04-30 14:40 | -34.01227 | -71.20693 | 19886 ft | 407 kts | 214° |
| 2026-04-30 14:40 | -34.03647 | -71.22418 | 20381 ft | 409 kts | 215° |
| 2026-04-30 14:41 | -34.06102 | -71.24168 | 20890 ft | 410 kts | 215° |
| 2026-04-30 14:41 | -34.08568 | -71.25927 | 21381 ft | 412 kts | 215° |
| 2026-04-30 14:41 | -34.11036 | -71.27689 | 21850 ft | 414 kts | 216° |
| 2026-04-30 14:41 | -34.13525 | -71.29468 | 22330 ft | 416 kts | 216° |
| 2026-04-30 14:42 | -34.15985 | -71.31227 | 22785 ft | 418 kts | 216° |
| 2026-04-30 14:42 | -34.18499 | -71.33025 | 23243 ft | 420 kts | 216° |
| 2026-04-30 14:42 | -34.21025 | -71.34833 | 23651 ft | 422 kts | 216° |
| 2026-04-30 14:42 | -34.23557 | -71.36646 | 24001 ft | 424 kts | 216° |
| 2026-04-30 14:43 | -34.26106 | -71.38473 | 24343 ft | 424 kts | 216° |
| 2026-04-30 14:43 | -34.28642 | -71.40293 | 24547 ft | 424 kts | 216° |
| 2026-04-30 14:43 | -34.31184 | -71.42121 | 24653 ft | 427 kts | 216° |
| 2026-04-30 14:43 | -34.33736 | -71.43958 | 24766 ft | 429 kts | 216° |
| 2026-04-30 14:44 | -34.36303 | -71.45804 | 24912 ft | 429 kts | 216° |
| 2026-04-30 14:44 | -34.38877 | -71.47656 | 25077 ft | 430 kts | 216° |
| 2026-04-30 14:44 | -34.41448 | -71.49506 | 25218 ft | 430 kts | 217° |
| 2026-04-30 14:44 | -34.44023 | -71.51362 | 25348 ft | 431 kts | 217° |
| 2026-04-30 14:45 | -34.46577 | -71.53203 | 25569 ft | 435 kts | 217° |
| 2026-04-30 14:45 | -34.49180 | -71.55078 | 25960 ft | 435 kts | 217° |
| 2026-04-30 14:45 | -34.51793 | -71.56963 | 26333 ft | 437 kts | 217° |
| 2026-04-30 14:45 | -34.54410 | -71.58854 | 26663 ft | 439 kts | 217° |
| 2026-04-30 14:46 | -34.57043 | -71.60745 | 26974 ft | 442 kts | 216° |
| 2026-04-30 14:46 | -34.59758 | -71.62544 | 27273 ft | 447 kts | 214° |
| 2026-04-30 14:46 | -34.62533 | -71.64276 | 27590 ft | 450 kts | 213° |
| 2026-04-30 14:46 | -34.64391 | -71.65412 | 27796 ft | 451 kts | 213° |
| 2026-04-30 14:47 | -34.68157 | -71.67706 | 28207 ft | 454 kts | 213° |
| 2026-04-30 14:47 | -34.70983 | -71.69439 | 28505 ft | 456 kts | 214° |
| 2026-04-30 14:47 | -34.73771 | -71.71159 | 28965 ft | 452 kts | 214° |
| 2026-04-30 14:47 | -34.76560 | -71.72887 | 28976 ft | 446 kts | 214° |
| 2026-04-30 14:48 | -34.82022 | -71.76293 | 28998 ft | 437 kts | 214° |
| 2026-04-30 14:48 | -34.87426 | -71.79685 | 29014 ft | 437 kts | 215° |
| 2026-04-30 14:49 | -34.92834 | -71.83085 | 29004 ft | 437 kts | 215° |
| 2026-04-30 14:49 | -34.98229 | -71.86478 | 29014 ft | 436 kts | 215° |
| 2026-04-30 14:50 | -35.05397 | -71.90990 | 29022 ft | 436 kts | 215° |
| 2026-04-30 14:51 | -35.13513 | -71.96111 | 29013 ft | 438 kts | 215° |
| 2026-04-30 14:52 | -35.21642 | -72.01250 | 29025 ft | 436 kts | 215° |
| 2026-04-30 14:52 | -35.26866 | -72.04550 | 29014 ft | 416 kts | 216° |
| 2026-04-30 14:52 | -35.29430 | -72.06179 | 29009 ft | 414 kts | 216° |
| 2026-04-30 14:53 | -35.34553 | -72.09440 | 28571 ft | 416 kts | 215° |
| 2026-04-30 14:53 | -35.37121 | -72.11072 | 28070 ft | 412 kts | 215° |
| 2026-04-30 14:54 | -35.42144 | -72.14261 | 27046 ft | 402 kts | 215° |
| 2026-04-30 14:54 | -35.47034 | -72.17376 | 26044 ft | 394 kts | 215° |
| 2026-04-30 14:55 | -35.51868 | -72.20464 | 25052 ft | 388 kts | 214° |
| 2026-04-30 14:55 | -35.54252 | -72.21988 | 24568 ft | 385 kts | 214° |
| 2026-04-30 14:55 | -35.58985 | -72.25018 | 23563 ft | 382 kts | 214° |
| 2026-04-30 14:56 | -35.63675 | -72.28024 | 22487 ft | 376 kts | 214° |
| 2026-04-30 14:56 | -35.68238 | -72.30950 | 21527 ft | 368 kts | 214° |
| 2026-04-30 14:57 | -35.70534 | -72.32425 | 21038 ft | 366 kts | 213° |
| 2026-04-30 14:57 | -35.75000 | -72.35297 | 20112 ft | 361 kts | 213° |
| 2026-04-30 14:58 | -35.79397 | -72.38128 | 19217 ft | 357 kts | 213° |
| 2026-04-30 14:58 | -35.81593 | -72.39544 | 18750 ft | 356 kts | 213° |
| 2026-04-30 14:58 | -35.85969 | -72.42366 | 17763 ft | 353 kts | 213° |
| 2026-04-30 14:59 | -35.90279 | -72.45228 | 16630 ft | 352 kts | 215° |
| 2026-04-30 15:00 | -35.96484 | -72.49913 | 15211 ft | 346 kts | 216° |
| 2026-04-30 15:00 | -36.00550 | -72.52996 | 14322 ft | 343 kts | 216° |
| 2026-04-30 15:01 | -36.04622 | -72.56065 | 13351 ft | 342 kts | 216° |
| 2026-04-30 15:01 | -36.06648 | -72.57589 | 12873 ft | 340 kts | 216° |
| 2026-04-30 15:01 | -36.10658 | -72.60606 | 11973 ft | 335 kts | 216° |
| 2026-04-30 15:02 | -36.12646 | -72.62103 | 11538 ft | 333 kts | 216° |
| 2026-04-30 15:02 | -36.14621 | -72.63591 | 11098 ft | 331 kts | 215° |
| 2026-04-30 15:03 | -36.20376 | -72.67926 | 10298 ft | 311 kts | 215° |
| 2026-04-30 15:03 | -36.23967 | -72.70635 | 10022 ft | 293 kts | 216° |
| 2026-04-30 15:04 | -36.27373 | -72.73213 | 9385 ft | 288 kts | 216° |
| 2026-04-30 15:04 | -36.32510 | -72.77108 | 8288 ft | 288 kts | 215° |
| 2026-04-30 15:05 | -36.37608 | -72.80973 | 7223 ft | 287 kts | 215° |
| 2026-04-30 15:06 | -36.41045 | -72.83560 | 6486 ft | 289 kts | 214° |
| 2026-04-30 15:06 | -36.44475 | -72.86118 | 5764 ft | 289 kts | 214° |
| 2026-04-30 15:07 | -36.47908 | -72.88687 | 5075 ft | 287 kts | 214° |
| 2026-04-30 15:07 | -36.51239 | -72.91179 | 4401 ft | 274 kts | 213° |
| 2026-04-30 15:08 | -36.54665 | -72.93242 | 3820 ft | 271 kts | 206° |
| 2026-04-30 15:08 | -36.59463 | -72.95979 | 3538 ft | 231 kts | 206° |
| 2026-04-30 15:09 | -36.62270 | -72.97603 | 2942 ft | 214 kts | 205° |
| 2026-04-30 15:09 | -36.64826 | -72.99083 | 2418 ft | 188 kts | 205° |
| 2026-04-30 15:10 | -36.66994 | -73.00341 | 2003 ft | 155 kts | 205° |
| 2026-04-30 15:11 | -36.70599 | -73.02434 | 1704 ft | 140 kts | 205° |
| 2026-04-30 15:11 | -36.72315 | -73.03447 | 1422 ft | 133 kts | 204° |
| 2026-04-30 15:12 | -36.74913 | -73.04958 | 390 ft | 139 kts | 204° |
| 2026-04-30 15:13 | -36.76570 | -73.05918 | 62 ft | 111 kts | 206° |
| 2026-04-30 15:14 | -36.77445 | -73.06333 | 59 ft | 12 kts | 171° |
| 2026-04-30 15:14 | -36.77639 | -73.06311 | 56 ft | 5 kts | 169° |
| 2026-04-30 15:16 | -36.77560 | -73.06251 | 56 ft | 6 kts | 21° |
| 2026-04-30 15:17 | -36.77537 | -73.06005 | 59 ft | 9 kts | 91° |
| 2026-04-30 15:18 | -36.77602 | -73.05942 | 54 ft | 0 kts | 190° |